sensor_id;sensor_type;location;lat;lon;timestamp;P1;durP1;ratioP1;P2;durP2;ratioP2
1366;SDS011;16877;48.810;9.282;2024-01-27T00:02:07;4.77;;;2.77;;
1366;SDS011;16877;48.810;9.282;2024-01-27T00:04:35;5.43;;;2.30;;
1366;SDS011;16877;48.810;9.282;2024-01-27T00:07:02;4.33;;;2.40;;
1366;SDS011;16877;48.810;9.282;2024-01-27T00:09:30;5.70;;;2.97;;
1366;SDS011;16877;48.810;9.282;2024-01-27T00:11:56;4.73;;;2.50;;
1366;SDS011;16877;48.810;9.282;2024-01-27T00:14:23;6.73;;;2.73;;
1366;SDS011;16877;48.810;9.282;2024-01-27T00:16:50;5.17;;;2.50;;
1366;SDS011;16877;48.810;9.282;2024-01-27T00:19:16;4.90;;;2.27;;
1366;SDS011;16877;48.810;9.282;2024-01-27T00:21:43;5.20;;;2.67;;
1366;SDS011;16877;48.810;9.282;2024-01-27T00:24:10;4.33;;;2.47;;
1366;SDS011;16877;48.810;9.282;2024-01-27T00:26:38;4.27;;;2.37;;
1366;SDS011;16877;48.810;9.282;2024-01-27T00:29:04;4.73;;;2.00;;
1366;SDS011;16877;48.810;9.282;2024-01-27T00:31:31;4.40;;;2.77;;
1366;SDS011;16877;48.810;9.282;2024-01-27T00:33:58;7.40;;;3.23;;
1366;SDS011;16877;48.810;9.282;2024-01-27T00:36:24;5.20;;;2.50;;
1366;SDS011;16877;48.810;9.282;2024-01-27T00:38:51;4.60;;;2.10;;
1366;SDS011;16877;48.810;9.282;2024-01-27T00:41:18;4.80;;;2.33;;
1366;SDS011;16877;48.810;9.282;2024-01-27T00:43:46;4.10;;;2.20;;
1366;SDS011;16877;48.810;9.282;2024-01-27T00:46:13;5.53;;;2.47;;
1366;SDS011;16877;48.810;9.282;2024-01-27T00:48:39;4.93;;;2.30;;
1366;SDS011;16877;48.810;9.282;2024-01-27T00:51:06;6.17;;;2.80;;
1366;SDS011;16877;48.810;9.282;2024-01-27T00:53:32;4.20;;;2.00;;
1366;SDS011;16877;48.810;9.282;2024-01-27T00:55:59;4.30;;;2.30;;
1366;SDS011;16877;48.810;9.282;2024-01-27T00:58:26;3.30;;;2.07;;
1366;SDS011;16877;48.810;9.282;2024-01-27T01:00:54;4.03;;;2.50;;
1366;SDS011;16877;48.810;9.282;2024-01-27T01:03:21;3.37;;;2.10;;
1366;SDS011;16877;48.810;9.282;2024-01-27T01:05:47;5.17;;;2.93;;
1366;SDS011;16877;48.810;9.282;2024-01-27T01:08:14;5.33;;;2.43;;
1366;SDS011;16877;48.810;9.282;2024-01-27T01:10:41;7.77;;;3.00;;
1366;SDS011;16877;48.810;9.282;2024-01-27T01:13:07;4.33;;;2.37;;
1366;SDS011;16877;48.810;9.282;2024-01-27T01:15:34;6.37;;;2.83;;
1366;SDS011;16877;48.810;9.282;2024-01-27T01:18:03;5.97;;;2.83;;
1366;SDS011;16877;48.810;9.282;2024-01-27T01:20:30;6.17;;;3.20;;
1366;SDS011;16877;48.810;9.282;2024-01-27T01:22:57;8.93;;;3.70;;
1366;SDS011;16877;48.810;9.282;2024-01-27T01:25:24;3.60;;;2.40;;
1366;SDS011;16877;48.810;9.282;2024-01-27T01:27:51;6.93;;;3.00;;
1366;SDS011;16877;48.810;9.282;2024-01-27T01:30:17;5.03;;;3.03;;
1366;SDS011;16877;48.810;9.282;2024-01-27T01:32:44;9.00;;;4.17;;
1366;SDS011;16877;48.810;9.282;2024-01-27T01:35:12;8.90;;;4.10;;
1366;SDS011;16877;48.810;9.282;2024-01-27T01:37:39;7.23;;;3.30;;
1366;SDS011;16877;48.810;9.282;2024-01-27T01:40:05;7.40;;;3.37;;
1366;SDS011;16877;48.810;9.282;2024-01-27T01:42:33;6.17;;;3.40;;
1366;SDS011;16877;48.810;9.282;2024-01-27T01:44:59;4.80;;;2.80;;
1366;SDS011;16877;48.810;9.282;2024-01-27T01:47:26;4.67;;;3.03;;
1366;SDS011;16877;48.810;9.282;2024-01-27T01:49:53;5.03;;;2.90;;
1366;SDS011;16877;48.810;9.282;2024-01-27T01:52:23;4.17;;;2.63;;
1366;SDS011;16877;48.810;9.282;2024-01-27T01:54:49;4.93;;;2.70;;
1366;SDS011;16877;48.810;9.282;2024-01-27T01:57:16;5.00;;;2.47;;
1366;SDS011;16877;48.810;9.282;2024-01-27T01:59:43;5.37;;;2.80;;
1366;SDS011;16877;48.810;9.282;2024-01-27T02:02:11;4.10;;;2.50;;
1366;SDS011;16877;48.810;9.282;2024-01-27T02:04:39;3.77;;;2.67;;
1366;SDS011;16877;48.810;9.282;2024-01-27T02:07:06;6.77;;;3.30;;
1366;SDS011;16877;48.810;9.282;2024-01-27T02:09:34;4.67;;;2.47;;
1366;SDS011;16877;48.810;9.282;2024-01-27T02:12:01;5.10;;;2.70;;
1366;SDS011;16877;48.810;9.282;2024-01-27T02:14:27;4.57;;;2.63;;
1366;SDS011;16877;48.810;9.282;2024-01-27T02:16:55;8.23;;;3.53;;
1366;SDS011;16877;48.810;9.282;2024-01-27T02:19:22;4.90;;;2.77;;
1366;SDS011;16877;48.810;9.282;2024-01-27T02:21:49;5.83;;;3.10;;
1366;SDS011;16877;48.810;9.282;2024-01-27T02:24:17;4.40;;;3.00;;
1366;SDS011;16877;48.810;9.282;2024-01-27T02:26:43;5.70;;;2.97;;
1366;SDS011;16877;48.810;9.282;2024-01-27T02:29:10;6.50;;;3.30;;
1366;SDS011;16877;48.810;9.282;2024-01-27T02:31:37;6.67;;;3.30;;
1366;SDS011;16877;48.810;9.282;2024-01-27T02:34:03;5.57;;;3.20;;
1366;SDS011;16877;48.810;9.282;2024-01-27T02:36:30;6.17;;;3.50;;
1366;SDS011;16877;48.810;9.282;2024-01-27T02:38:57;4.10;;;3.00;;
1366;SDS011;16877;48.810;9.282;2024-01-27T02:41:25;5.90;;;3.13;;
1366;SDS011;16877;48.810;9.282;2024-01-27T02:43:52;6.23;;;3.03;;
1366;SDS011;16877;48.810;9.282;2024-01-27T02:46:18;5.13;;;3.50;;
1366;SDS011;16877;48.810;9.282;2024-01-27T02:48:45;6.77;;;3.47;;
1366;SDS011;16877;48.810;9.282;2024-01-27T02:51:12;5.40;;;2.93;;
1366;SDS011;16877;48.810;9.282;2024-01-27T02:53:38;6.20;;;3.00;;
1366;SDS011;16877;48.810;9.282;2024-01-27T02:56:06;4.33;;;2.43;;
1366;SDS011;16877;48.810;9.282;2024-01-27T02:58:34;5.60;;;2.90;;
1366;SDS011;16877;48.810;9.282;2024-01-27T03:01:01;5.00;;;2.77;;
1366;SDS011;16877;48.810;9.282;2024-01-27T03:03:28;5.90;;;3.00;;
1366;SDS011;16877;48.810;9.282;2024-01-27T03:05:55;4.00;;;2.70;;
1366;SDS011;16877;48.810;9.282;2024-01-27T03:08:21;5.70;;;3.07;;
1366;SDS011;16877;48.810;9.282;2024-01-27T03:10:48;4.30;;;3.17;;
1366;SDS011;16877;48.810;9.282;2024-01-27T03:13:15;7.93;;;3.50;;
1366;SDS011;16877;48.810;9.282;2024-01-27T03:15:45;7.17;;;3.63;;
1366;SDS011;16877;48.810;9.282;2024-01-27T03:18:11;4.93;;;3.20;;
1366;SDS011;16877;48.810;9.282;2024-01-27T03:20:38;5.90;;;3.83;;
1366;SDS011;16877;48.810;9.282;2024-01-27T03:23:05;4.87;;;3.50;;
1366;SDS011;16877;48.810;9.282;2024-01-27T03:25:31;4.97;;;3.77;;
1366;SDS011;16877;48.810;9.282;2024-01-27T03:27:58;7.50;;;4.33;;
1366;SDS011;16877;48.810;9.282;2024-01-27T03:30:26;7.00;;;4.97;;
1366;SDS011;16877;48.810;9.282;2024-01-27T03:32:54;6.30;;;4.70;;
1366;SDS011;16877;48.810;9.282;2024-01-27T03:35:20;5.63;;;4.20;;
1366;SDS011;16877;48.810;9.282;2024-01-27T03:37:47;5.27;;;4.07;;
1366;SDS011;16877;48.810;9.282;2024-01-27T03:40:14;6.20;;;4.17;;
1366;SDS011;16877;48.810;9.282;2024-01-27T03:42:40;5.13;;;4.10;;
1366;SDS011;16877;48.810;9.282;2024-01-27T03:45:07;6.17;;;4.40;;
1366;SDS011;16877;48.810;9.282;2024-01-27T03:47:34;4.60;;;3.90;;
1366;SDS011;16877;48.810;9.282;2024-01-27T03:50:02;6.40;;;4.27;;
1366;SDS011;16877;48.810;9.282;2024-01-27T03:52:29;5.63;;;3.60;;
1366;SDS011;16877;48.810;9.282;2024-01-27T03:54:56;6.90;;;4.33;;
1366;SDS011;16877;48.810;9.282;2024-01-27T03:57:22;5.03;;;4.07;;
1366;SDS011;16877;48.810;9.282;2024-01-27T03:59:49;4.80;;;3.17;;
1366;SDS011;16877;48.810;9.282;2024-01-27T04:02:16;5.33;;;3.80;;
1366;SDS011;16877;48.810;9.282;2024-01-27T04:04:42;7.13;;;3.83;;
1366;SDS011;16877;48.810;9.282;2024-01-27T04:07:10;6.40;;;4.10;;
1366;SDS011;16877;48.810;9.282;2024-01-27T04:09:37;4.50;;;3.20;;
1366;SDS011;16877;48.810;9.282;2024-01-27T04:12:04;6.40;;;3.70;;
1366;SDS011;16877;48.810;9.282;2024-01-27T04:14:31;6.93;;;3.90;;
1366;SDS011;16877;48.810;9.282;2024-01-27T04:16:57;7.63;;;3.43;;
1366;SDS011;16877;48.810;9.282;2024-01-27T04:19:24;5.93;;;3.80;;
1366;SDS011;16877;48.810;9.282;2024-01-27T04:21:51;7.20;;;4.30;;
1366;SDS011;16877;48.810;9.282;2024-01-27T04:24:19;5.00;;;3.50;;
1366;SDS011;16877;48.810;9.282;2024-01-27T04:26:45;8.10;;;3.53;;
1366;SDS011;16877;48.810;9.282;2024-01-27T04:29:12;7.00;;;3.80;;
1366;SDS011;16877;48.810;9.282;2024-01-27T04:31:40;6.87;;;4.13;;
1366;SDS011;16877;48.810;9.282;2024-01-27T04:34:07;4.47;;;3.20;;
1366;SDS011;16877;48.810;9.282;2024-01-27T04:36:33;5.87;;;3.50;;
1366;SDS011;16877;48.810;9.282;2024-01-27T04:39:01;3.87;;;2.97;;
1366;SDS011;16877;48.810;9.282;2024-01-27T04:41:30;5.23;;;3.17;;
1366;SDS011;16877;48.810;9.282;2024-01-27T04:43:57;4.47;;;3.00;;
1366;SDS011;16877;48.810;9.282;2024-01-27T04:46:24;5.97;;;3.30;;
1366;SDS011;16877;48.810;9.282;2024-01-27T04:48:50;5.30;;;3.30;;
1366;SDS011;16877;48.810;9.282;2024-01-27T04:51:17;4.40;;;3.00;;
1366;SDS011;16877;48.810;9.282;2024-01-27T04:53:44;5.50;;;3.60;;
1366;SDS011;16877;48.810;9.282;2024-01-27T04:56:10;4.80;;;3.03;;
1366;SDS011;16877;48.810;9.282;2024-01-27T04:58:39;5.63;;;2.77;;
1366;SDS011;16877;48.810;9.282;2024-01-27T05:01:06;4.20;;;2.80;;
1366;SDS011;16877;48.810;9.282;2024-01-27T05:03:33;4.63;;;3.03;;
1366;SDS011;16877;48.810;9.282;2024-01-27T05:06:00;4.00;;;2.70;;
1366;SDS011;16877;48.810;9.282;2024-01-27T05:08:27;4.70;;;2.50;;
1366;SDS011;16877;48.810;9.282;2024-01-27T05:10:53;7.73;;;3.37;;
1366;SDS011;16877;48.810;9.282;2024-01-27T05:13:20;3.87;;;2.73;;
1366;SDS011;16877;48.810;9.282;2024-01-27T05:15:48;5.47;;;2.70;;
1366;SDS011;16877;48.810;9.282;2024-01-27T05:18:15;4.23;;;3.03;;
1366;SDS011;16877;48.810;9.282;2024-01-27T05:20:41;4.87;;;2.83;;
1366;SDS011;16877;48.810;9.282;2024-01-27T05:23:08;4.40;;;2.77;;
1366;SDS011;16877;48.810;9.282;2024-01-27T05:25:35;3.77;;;2.80;;
1366;SDS011;16877;48.810;9.282;2024-01-27T05:28:01;4.10;;;2.80;;
1366;SDS011;16877;48.810;9.282;2024-01-27T05:30:28;5.67;;;3.10;;
1366;SDS011;16877;48.810;9.282;2024-01-27T05:32:56;5.50;;;2.90;;
1366;SDS011;16877;48.810;9.282;2024-01-27T05:35:23;3.90;;;2.60;;
1366;SDS011;16877;48.810;9.282;2024-01-27T05:37:49;4.27;;;2.67;;
1366;SDS011;16877;48.810;9.282;2024-01-27T05:40:17;7.00;;;3.10;;
1366;SDS011;16877;48.810;9.282;2024-01-27T05:42:43;4.30;;;2.67;;
1366;SDS011;16877;48.810;9.282;2024-01-27T05:45:11;4.60;;;2.87;;
1366;SDS011;16877;48.810;9.282;2024-01-27T05:47:37;4.30;;;3.03;;
1366;SDS011;16877;48.810;9.282;2024-01-27T05:50:06;5.20;;;3.00;;
1366;SDS011;16877;48.810;9.282;2024-01-27T05:52:34;6.47;;;3.30;;
1366;SDS011;16877;48.810;9.282;2024-01-27T05:55:01;4.47;;;3.03;;
1366;SDS011;16877;48.810;9.282;2024-01-27T05:57:28;4.30;;;2.90;;
1366;SDS011;16877;48.810;9.282;2024-01-27T05:59:54;4.03;;;2.80;;
1366;SDS011;16877;48.810;9.282;2024-01-27T06:02:21;3.63;;;2.73;;
1366;SDS011;16877;48.810;9.282;2024-01-27T06:04:48;7.10;;;2.80;;
1366;SDS011;16877;48.810;9.282;2024-01-27T06:07:16;3.40;;;2.47;;
1366;SDS011;16877;48.810;9.282;2024-01-27T06:09:42;6.17;;;3.50;;
1366;SDS011;16877;48.810;9.282;2024-01-27T06:12:09;3.03;;;2.60;;
1366;SDS011;16877;48.810;9.282;2024-01-27T06:14:36;8.00;;;2.90;;
1366;SDS011;16877;48.810;9.282;2024-01-27T06:17:04;5.90;;;2.70;;
1366;SDS011;16877;48.810;9.282;2024-01-27T06:19:31;6.00;;;2.87;;
1366;SDS011;16877;48.810;9.282;2024-01-27T06:21:57;4.50;;;3.03;;
1366;SDS011;16877;48.810;9.282;2024-01-27T06:24:25;3.97;;;2.47;;
1366;SDS011;16877;48.810;9.282;2024-01-27T06:26:52;3.80;;;2.73;;
1366;SDS011;16877;48.810;9.282;2024-01-27T06:29:19;4.53;;;3.20;;
1366;SDS011;16877;48.810;9.282;2024-01-27T06:31:45;5.57;;;3.30;;
1366;SDS011;16877;48.810;9.282;2024-01-27T06:34:12;4.77;;;3.23;;
1366;SDS011;16877;48.810;9.282;2024-01-27T06:36:39;5.20;;;2.83;;
1366;SDS011;16877;48.810;9.282;2024-01-27T06:39:05;3.93;;;2.87;;
1366;SDS011;16877;48.810;9.282;2024-01-27T06:41:35;4.80;;;3.03;;
1366;SDS011;16877;48.810;9.282;2024-01-27T06:44:01;7.33;;;2.17;;
1366;SDS011;16877;48.810;9.282;2024-01-27T06:46:29;3.67;;;2.30;;
1366;SDS011;16877;48.810;9.282;2024-01-27T06:48:55;4.80;;;3.20;;
1366;SDS011;16877;48.810;9.282;2024-01-27T06:51:22;3.30;;;2.60;;
1366;SDS011;16877;48.810;9.282;2024-01-27T06:53:49;3.50;;;3.10;;
1366;SDS011;16877;48.810;9.282;2024-01-27T06:56:15;4.03;;;2.83;;
1366;SDS011;16877;48.810;9.282;2024-01-27T06:58:44;3.60;;;3.10;;
1366;SDS011;16877;48.810;9.282;2024-01-27T07:01:10;4.37;;;3.60;;
1366;SDS011;16877;48.810;9.282;2024-01-27T07:03:37;4.80;;;3.27;;
1366;SDS011;16877;48.810;9.282;2024-01-27T07:06:05;3.73;;;3.33;;
1366;SDS011;16877;48.810;9.282;2024-01-27T07:08:31;4.77;;;3.23;;
1366;SDS011;16877;48.810;9.282;2024-01-27T07:10:58;3.47;;;2.93;;
1366;SDS011;16877;48.810;9.282;2024-01-27T07:13:25;3.83;;;2.63;;
1366;SDS011;16877;48.810;9.282;2024-01-27T07:15:55;4.00;;;3.20;;
1366;SDS011;16877;48.810;9.282;2024-01-27T07:18:22;4.13;;;3.20;;
1366;SDS011;16877;48.810;9.282;2024-01-27T07:20:49;3.70;;;3.00;;
1366;SDS011;16877;48.810;9.282;2024-01-27T07:23:17;3.33;;;2.70;;
1366;SDS011;16877;48.810;9.282;2024-01-27T07:25:43;3.83;;;2.67;;
1366;SDS011;16877;48.810;9.282;2024-01-27T07:28:10;3.90;;;3.27;;
1366;SDS011;16877;48.810;9.282;2024-01-27T07:30:37;3.70;;;3.13;;
1366;SDS011;16877;48.810;9.282;2024-01-27T07:33:05;5.20;;;3.03;;
1366;SDS011;16877;48.810;9.282;2024-01-27T07:35:32;3.60;;;2.90;;
1366;SDS011;16877;48.810;9.282;2024-01-27T07:37:58;4.50;;;2.97;;
1366;SDS011;16877;48.810;9.282;2024-01-27T07:40:25;4.53;;;3.20;;
1366;SDS011;16877;48.810;9.282;2024-01-27T07:42:51;4.47;;;2.87;;
1366;SDS011;16877;48.810;9.282;2024-01-27T07:45:19;4.13;;;3.33;;
1366;SDS011;16877;48.810;9.282;2024-01-27T07:47:45;5.73;;;2.90;;
1366;SDS011;16877;48.810;9.282;2024-01-27T07:50:14;3.70;;;2.97;;
1366;SDS011;16877;48.810;9.282;2024-01-27T07:52:40;3.30;;;2.73;;
1366;SDS011;16877;48.810;9.282;2024-01-27T07:55:07;5.90;;;3.13;;
1366;SDS011;16877;48.810;9.282;2024-01-27T07:57:35;5.80;;;4.43;;
1366;SDS011;16877;48.810;9.282;2024-01-27T08:00:01;5.30;;;4.20;;
1366;SDS011;16877;48.810;9.282;2024-01-27T08:02:29;5.73;;;4.80;;
1366;SDS011;16877;48.810;9.282;2024-01-27T08:04:55;6.03;;;5.43;;
1366;SDS011;16877;48.810;9.282;2024-01-27T08:07:24;5.77;;;5.10;;
1366;SDS011;16877;48.810;9.282;2024-01-27T08:09:50;6.30;;;5.33;;
1366;SDS011;16877;48.810;9.282;2024-01-27T08:12:18;6.47;;;4.80;;
1366;SDS011;16877;48.810;9.282;2024-01-27T08:14:45;7.60;;;5.70;;
1366;SDS011;16877;48.810;9.282;2024-01-27T08:17:11;8.23;;;5.40;;
1366;SDS011;16877;48.810;9.282;2024-01-27T08:19:38;6.07;;;4.67;;
1366;SDS011;16877;48.810;9.282;2024-01-27T08:22:05;6.10;;;5.03;;
1366;SDS011;16877;48.810;9.282;2024-01-27T08:24:35;7.00;;;5.37;;
1366;SDS011;16877;48.810;9.282;2024-01-27T08:27:02;5.63;;;5.00;;
1366;SDS011;16877;48.810;9.282;2024-01-27T08:29:30;5.97;;;5.23;;
1366;SDS011;16877;48.810;9.282;2024-01-27T08:31:58;5.90;;;4.93;;
1366;SDS011;16877;48.810;9.282;2024-01-27T08:34:24;5.60;;;5.03;;
1366;SDS011;16877;48.810;9.282;2024-01-27T08:36:51;4.97;;;4.30;;
1366;SDS011;16877;48.810;9.282;2024-01-27T08:39:18;4.70;;;4.20;;
1366;SDS011;16877;48.810;9.282;2024-01-27T08:41:46;4.70;;;4.20;;
1366;SDS011;16877;48.810;9.282;2024-01-27T08:44:12;4.33;;;3.93;;
1366;SDS011;16877;48.810;9.282;2024-01-27T08:46:39;4.67;;;4.17;;
1366;SDS011;16877;48.810;9.282;2024-01-27T08:49:06;5.37;;;4.30;;
1366;SDS011;16877;48.810;9.282;2024-01-27T08:51:32;5.73;;;4.60;;
1366;SDS011;16877;48.810;9.282;2024-01-27T08:53:59;4.83;;;3.67;;
1366;SDS011;16877;48.810;9.282;2024-01-27T08:56:26;4.73;;;3.97;;
1366;SDS011;16877;48.810;9.282;2024-01-27T08:58:54;6.20;;;3.97;;
1366;SDS011;16877;48.810;9.282;2024-01-27T09:01:21;5.67;;;4.30;;
1366;SDS011;16877;48.810;9.282;2024-01-27T09:03:47;6.40;;;4.50;;
1366;SDS011;16877;48.810;9.282;2024-01-27T09:06:14;5.10;;;4.10;;
1366;SDS011;16877;48.810;9.282;2024-01-27T09:08:41;6.07;;;4.70;;
1366;SDS011;16877;48.810;9.282;2024-01-27T09:11:08;6.67;;;4.40;;
1366;SDS011;16877;48.810;9.282;2024-01-27T09:13:35;4.97;;;4.47;;
1366;SDS011;16877;48.810;9.282;2024-01-27T09:16:03;4.50;;;4.03;;
1366;SDS011;16877;48.810;9.282;2024-01-27T09:18:30;5.03;;;4.17;;
1366;SDS011;16877;48.810;9.282;2024-01-27T09:20:56;6.20;;;3.70;;
1366;SDS011;16877;48.810;9.282;2024-01-27T09:23:23;4.47;;;4.00;;
1366;SDS011;16877;48.810;9.282;2024-01-27T09:25:50;5.20;;;4.20;;
1366;SDS011;16877;48.810;9.282;2024-01-27T09:28:17;5.50;;;4.77;;
1366;SDS011;16877;48.810;9.282;2024-01-27T09:30:44;4.50;;;3.53;;
1366;SDS011;16877;48.810;9.282;2024-01-27T09:33:12;6.50;;;3.97;;
1366;SDS011;16877;48.810;9.282;2024-01-27T09:35:38;6.43;;;4.70;;
1366;SDS011;16877;48.810;9.282;2024-01-27T09:38:05;4.40;;;3.97;;
1366;SDS011;16877;48.810;9.282;2024-01-27T09:40:34;5.10;;;3.47;;
1366;SDS011;16877;48.810;9.282;2024-01-27T09:43:01;6.23;;;4.23;;
1366;SDS011;16877;48.810;9.282;2024-01-27T09:45:27;5.00;;;4.10;;
1366;SDS011;16877;48.810;9.282;2024-01-27T09:47:55;7.10;;;4.57;;
1366;SDS011;16877;48.810;9.282;2024-01-27T09:50:25;4.43;;;3.70;;
1366;SDS011;16877;48.810;9.282;2024-01-27T09:52:52;6.47;;;4.27;;
1366;SDS011;16877;48.810;9.282;2024-01-27T09:55:19;5.67;;;4.30;;
1366;SDS011;16877;48.810;9.282;2024-01-27T09:57:46;5.20;;;3.83;;
1366;SDS011;16877;48.810;9.282;2024-01-27T10:00:14;6.67;;;3.97;;
1366;SDS011;16877;48.810;9.282;2024-01-27T10:02:42;7.60;;;3.93;;
1366;SDS011;16877;48.810;9.282;2024-01-27T10:05:11;4.70;;;3.50;;
1366;SDS011;16877;48.810;9.282;2024-01-27T10:07:41;5.50;;;2.93;;
1366;SDS011;16877;48.810;9.282;2024-01-27T10:10:08;6.20;;;3.37;;
1366;SDS011;16877;48.810;9.282;2024-01-27T10:12:35;7.63;;;3.40;;
1366;SDS011;16877;48.810;9.282;2024-01-27T10:15:06;5.43;;;3.03;;
1366;SDS011;16877;48.810;9.282;2024-01-27T10:17:33;4.50;;;2.70;;
1366;SDS011;16877;48.810;9.282;2024-01-27T10:20:03;6.60;;;2.60;;
1366;SDS011;16877;48.810;9.282;2024-01-27T10:22:37;6.63;;;2.90;;
1366;SDS011;16877;48.810;9.282;2024-01-27T10:25:06;6.00;;;2.90;;
1366;SDS011;16877;48.810;9.282;2024-01-27T10:27:33;5.73;;;3.27;;
1366;SDS011;16877;48.810;9.282;2024-01-27T10:30:00;5.83;;;2.40;;
1366;SDS011;16877;48.810;9.282;2024-01-27T10:32:27;6.60;;;3.53;;
1366;SDS011;16877;48.810;9.282;2024-01-27T10:35:00;4.77;;;2.70;;
1366;SDS011;16877;48.810;9.282;2024-01-27T10:37:28;6.97;;;3.10;;
1366;SDS011;16877;48.810;9.282;2024-01-27T10:39:59;6.70;;;3.60;;
1366;SDS011;16877;48.810;9.282;2024-01-27T10:42:28;3.93;;;3.33;;
1366;SDS011;16877;48.810;9.282;2024-01-27T10:44:55;7.83;;;4.63;;
1366;SDS011;16877;48.810;9.282;2024-01-27T10:47:24;6.33;;;4.33;;
1366;SDS011;16877;48.810;9.282;2024-01-27T10:49:52;6.53;;;3.73;;
1366;SDS011;16877;48.810;9.282;2024-01-27T10:52:21;6.20;;;3.87;;
1366;SDS011;16877;48.810;9.282;2024-01-27T10:54:53;7.53;;;3.63;;
1366;SDS011;16877;48.810;9.282;2024-01-27T10:57:24;6.33;;;3.57;;
1366;SDS011;16877;48.810;9.282;2024-01-27T10:59:53;7.47;;;4.23;;
1366;SDS011;16877;48.810;9.282;2024-01-27T11:02:21;5.67;;;3.67;;
1366;SDS011;16877;48.810;9.282;2024-01-27T11:04:49;5.10;;;3.30;;
1366;SDS011;16877;48.810;9.282;2024-01-27T11:07:17;5.70;;;3.53;;
1366;SDS011;16877;48.810;9.282;2024-01-27T11:09:46;6.33;;;4.27;;
1366;SDS011;16877;48.810;9.282;2024-01-27T11:12:15;5.00;;;3.83;;
1366;SDS011;16877;48.810;9.282;2024-01-27T11:14:42;5.27;;;3.50;;
1366;SDS011;16877;48.810;9.282;2024-01-27T11:17:11;7.10;;;3.47;;
1366;SDS011;16877;48.810;9.282;2024-01-27T11:19:39;4.67;;;3.63;;
1366;SDS011;16877;48.810;9.282;2024-01-27T11:22:06;11.30;;;3.40;;
1366;SDS011;16877;48.810;9.282;2024-01-27T11:24:33;5.30;;;3.40;;
1366;SDS011;16877;48.810;9.282;2024-01-27T11:27:00;5.40;;;3.40;;
1366;SDS011;16877;48.810;9.282;2024-01-27T11:29:27;5.10;;;3.30;;
1366;SDS011;16877;48.810;9.282;2024-01-27T11:31:55;7.00;;;4.03;;
1366;SDS011;16877;48.810;9.282;2024-01-27T11:34:23;5.30;;;3.03;;
1366;SDS011;16877;48.810;9.282;2024-01-27T11:36:50;8.23;;;4.13;;
1366;SDS011;16877;48.810;9.282;2024-01-27T11:39:23;5.00;;;3.10;;
1366;SDS011;16877;48.810;9.282;2024-01-27T11:41:53;5.57;;;3.40;;
1366;SDS011;16877;48.810;9.282;2024-01-27T11:44:30;5.90;;;3.03;;
1366;SDS011;16877;48.810;9.282;2024-01-27T11:46:57;5.67;;;3.20;;
1366;SDS011;16877;48.810;9.282;2024-01-27T11:49:26;5.03;;;3.00;;
1366;SDS011;16877;48.810;9.282;2024-01-27T11:51:53;6.00;;;3.50;;
1366;SDS011;16877;48.810;9.282;2024-01-27T11:54:20;5.30;;;3.23;;
1366;SDS011;16877;48.810;9.282;2024-01-27T11:56:47;6.67;;;3.43;;
1366;SDS011;16877;48.810;9.282;2024-01-27T11:59:14;7.60;;;3.70;;
1366;SDS011;16877;48.810;9.282;2024-01-27T12:01:41;5.60;;;3.20;;
1366;SDS011;16877;48.810;9.282;2024-01-27T12:04:07;8.00;;;3.17;;
1366;SDS011;16877;48.810;9.282;2024-01-27T12:06:37;6.87;;;3.23;;
1366;SDS011;16877;48.810;9.282;2024-01-27T12:09:05;5.13;;;2.70;;
1366;SDS011;16877;48.810;9.282;2024-01-27T12:11:37;6.73;;;3.23;;
1366;SDS011;16877;48.810;9.282;2024-01-27T12:14:05;5.23;;;3.23;;
1366;SDS011;16877;48.810;9.282;2024-01-27T12:16:31;5.57;;;3.00;;
1366;SDS011;16877;48.810;9.282;2024-01-27T12:18:58;5.73;;;2.67;;
1366;SDS011;16877;48.810;9.282;2024-01-27T12:21:25;5.60;;;2.70;;
1366;SDS011;16877;48.810;9.282;2024-01-27T12:23:54;6.80;;;3.00;;
1366;SDS011;16877;48.810;9.282;2024-01-27T12:26:23;5.10;;;2.77;;
1366;SDS011;16877;48.810;9.282;2024-01-27T12:28:51;5.17;;;3.40;;
1366;SDS011;16877;48.810;9.282;2024-01-27T12:31:18;3.67;;;2.33;;
1366;SDS011;16877;48.810;9.282;2024-01-27T12:33:48;4.80;;;2.77;;
1366;SDS011;16877;48.810;9.282;2024-01-27T12:36:16;5.97;;;2.80;;
1366;SDS011;16877;48.810;9.282;2024-01-27T12:38:46;5.20;;;2.87;;
1366;SDS011;16877;48.810;9.282;2024-01-27T12:41:14;8.20;;;3.03;;
1366;SDS011;16877;48.810;9.282;2024-01-27T12:43:41;4.97;;;2.37;;
1366;SDS011;16877;48.810;9.282;2024-01-27T12:46:08;6.67;;;3.07;;
1366;SDS011;16877;48.810;9.282;2024-01-27T12:48:36;6.33;;;2.70;;
1366;SDS011;16877;48.810;9.282;2024-01-27T12:51:04;5.50;;;2.40;;
1366;SDS011;16877;48.810;9.282;2024-01-27T12:53:30;5.80;;;3.10;;
1366;SDS011;16877;48.810;9.282;2024-01-27T12:55:57;5.40;;;2.40;;
1366;SDS011;16877;48.810;9.282;2024-01-27T12:58:25;7.07;;;2.83;;
1366;SDS011;16877;48.810;9.282;2024-01-27T13:00:52;6.67;;;3.17;;
1366;SDS011;16877;48.810;9.282;2024-01-27T13:03:19;7.07;;;3.70;;
1366;SDS011;16877;48.810;9.282;2024-01-27T13:05:46;5.87;;;3.27;;
1366;SDS011;16877;48.810;9.282;2024-01-27T13:08:13;7.00;;;3.00;;
1366;SDS011;16877;48.810;9.282;2024-01-27T13:10:40;5.07;;;2.57;;
1366;SDS011;16877;48.810;9.282;2024-01-27T13:13:06;5.10;;;2.80;;
1366;SDS011;16877;48.810;9.282;2024-01-27T13:15:34;5.20;;;2.80;;
1366;SDS011;16877;48.810;9.282;2024-01-27T13:18:01;5.20;;;3.20;;
1366;SDS011;16877;48.810;9.282;2024-01-27T13:20:27;5.47;;;3.00;;
1366;SDS011;16877;48.810;9.282;2024-01-27T13:22:54;4.97;;;2.40;;
1366;SDS011;16877;48.810;9.282;2024-01-27T13:25:21;6.33;;;2.93;;
1366;SDS011;16877;48.810;9.282;2024-01-27T13:27:48;4.80;;;2.60;;
1366;SDS011;16877;48.810;9.282;2024-01-27T13:30:15;5.13;;;2.53;;
1366;SDS011;16877;48.810;9.282;2024-01-27T13:32:44;6.30;;;2.70;;
1366;SDS011;16877;48.810;9.282;2024-01-27T13:35:10;5.83;;;2.93;;
1366;SDS011;16877;48.810;9.282;2024-01-27T13:37:37;7.47;;;3.00;;
1366;SDS011;16877;48.810;9.282;2024-01-27T13:40:05;4.73;;;3.33;;
1366;SDS011;16877;48.810;9.282;2024-01-27T13:42:33;3.70;;;2.10;;
1366;SDS011;16877;48.810;9.282;2024-01-27T13:45:00;5.27;;;2.47;;
1366;SDS011;16877;48.810;9.282;2024-01-27T13:47:27;5.57;;;2.67;;
1366;SDS011;16877;48.810;9.282;2024-01-27T13:49:56;6.30;;;2.80;;
1366;SDS011;16877;48.810;9.282;2024-01-27T13:52:23;6.60;;;2.90;;
1366;SDS011;16877;48.810;9.282;2024-01-27T13:54:50;4.63;;;2.37;;
1366;SDS011;16877;48.810;9.282;2024-01-27T13:57:17;4.30;;;2.13;;
1366;SDS011;16877;48.810;9.282;2024-01-27T13:59:43;6.33;;;2.77;;
1366;SDS011;16877;48.810;9.282;2024-01-27T14:02:10;4.53;;;2.43;;
1366;SDS011;16877;48.810;9.282;2024-01-27T14:04:38;3.50;;;2.33;;
1366;SDS011;16877;48.810;9.282;2024-01-27T14:07:06;6.30;;;3.07;;
1366;SDS011;16877;48.810;9.282;2024-01-27T14:09:34;7.13;;;2.77;;
1366;SDS011;16877;48.810;9.282;2024-01-27T14:12:01;4.23;;;2.60;;
1366;SDS011;16877;48.810;9.282;2024-01-27T14:14:28;5.30;;;2.37;;
1366;SDS011;16877;48.810;9.282;2024-01-27T14:16:54;6.63;;;2.90;;
1366;SDS011;16877;48.810;9.282;2024-01-27T14:19:21;4.57;;;2.97;;
1366;SDS011;16877;48.810;9.282;2024-01-27T14:21:48;3.60;;;2.33;;
1366;SDS011;16877;48.810;9.282;2024-01-27T14:24:16;3.90;;;2.30;;
1366;SDS011;16877;48.810;9.282;2024-01-27T14:26:43;5.60;;;2.67;;
1366;SDS011;16877;48.810;9.282;2024-01-27T14:29:09;4.50;;;2.83;;
1366;SDS011;16877;48.810;9.282;2024-01-27T14:31:36;5.10;;;2.43;;
1366;SDS011;16877;48.810;9.282;2024-01-27T14:34:03;4.20;;;2.37;;
1366;SDS011;16877;48.810;9.282;2024-01-27T14:36:29;4.47;;;2.37;;
1366;SDS011;16877;48.810;9.282;2024-01-27T14:38:56;4.70;;;2.83;;
1366;SDS011;16877;48.810;9.282;2024-01-27T14:41:24;5.40;;;2.60;;
1366;SDS011;16877;48.810;9.282;2024-01-27T14:43:51;4.13;;;2.47;;
1366;SDS011;16877;48.810;9.282;2024-01-27T14:46:17;4.80;;;2.23;;
1366;SDS011;16877;48.810;9.282;2024-01-27T14:48:44;4.73;;;2.40;;
1366;SDS011;16877;48.810;9.282;2024-01-27T14:51:11;5.00;;;2.50;;
1366;SDS011;16877;48.810;9.282;2024-01-27T14:53:38;4.77;;;2.30;;
1366;SDS011;16877;48.810;9.282;2024-01-27T14:56:05;6.50;;;2.43;;
1366;SDS011;16877;48.810;9.282;2024-01-27T14:58:33;3.90;;;2.03;;
1366;SDS011;16877;48.810;9.282;2024-01-27T15:01:00;3.70;;;2.10;;